createdAt,value
2019-01-30T00:01:09.964Z,58.82
2019-01-30T00:03:38.640Z,58.81
2019-01-30T00:06:08.554Z,58.78
2019-01-30T00:08:36.727Z,58.80
2019-01-30T00:11:05.781Z,58.80
2019-01-30T00:13:33.958Z,58.76
2019-01-30T00:16:02.030Z,58.70
2019-01-30T00:18:30.095Z,58.67
2019-01-30T00:20:58.193Z,58.63
2019-01-30T00:23:28.090Z,58.60
2019-01-30T00:25:56.144Z,58.57
2019-01-30T00:28:25.286Z,58.56
2019-01-30T00:30:53.337Z,58.57
2019-01-30T00:33:21.607Z,58.56
2019-01-30T00:35:49.660Z,58.53
2019-01-30T00:38:17.822Z,58.50
2019-01-30T00:40:45.850Z,58.48
2019-01-30T00:43:13.950Z,58.49
2019-01-30T00:45:41.992Z,58.48
2019-01-30T00:48:10.070Z,58.49
2019-01-30T00:50:38.126Z,58.50
2019-01-30T00:53:06.208Z,58.50
2019-01-30T00:55:34.290Z,58.50
2019-01-30T00:58:02.354Z,58.53
2019-01-30T01:00:30.623Z,58.53
2019-01-30T01:02:59.102Z,58.54
2019-01-30T01:05:27.133Z,58.52
2019-01-30T01:07:55.407Z,58.51
2019-01-30T01:10:23.649Z,58.52
2019-01-30T01:12:51.737Z,58.53
2019-01-30T01:15:19.838Z,58.50
2019-01-30T01:17:48.997Z,58.50
2019-01-30T01:20:17.268Z,58.50
2019-01-30T01:22:45.442Z,58.49
2019-01-30T01:25:16.041Z,58.50
2019-01-30T01:27:45.230Z,58.52
2019-01-30T01:30:25.123Z,58.51
2019-01-30T01:32:49.790Z,58.54
2019-01-30T01:35:17.964Z,58.50
2019-01-30T01:37:46.032Z,58.50
2019-01-30T01:40:15.783Z,58.48
2019-01-30T01:42:44.160Z,58.45
2019-01-30T01:45:18.237Z,58.48
2019-01-30T01:47:46.301Z,58.45
2019-01-30T01:50:17.231Z,58.44
2019-01-30T01:52:45.277Z,58.43
2019-01-30T01:55:14.541Z,58.43
2019-01-30T01:57:42.586Z,58.42
2019-01-30T02:00:17.059Z,58.41
2019-01-30T02:02:45.358Z,58.41
2019-01-30T02:05:16.637Z,58.41
2019-01-30T02:07:44.685Z,58.42
2019-01-30T02:10:16.244Z,58.42
2019-01-30T02:12:44.356Z,58.41
2019-01-30T02:15:16.358Z,58.42
2019-01-30T02:17:44.393Z,58.40
2019-01-30T02:20:22.105Z,58.39
2019-01-30T02:22:50.534Z,58.41
2019-01-30T02:25:18.875Z,58.39
2019-01-30T02:27:46.901Z,58.39
2019-01-30T02:30:20.907Z,58.40
2019-01-30T02:32:49.127Z,58.41
2019-01-30T02:35:17.500Z,58.41
2019-01-30T02:37:45.540Z,58.44
2019-01-30T02:40:15.689Z,58.44
2019-01-30T02:42:43.848Z,58.43
2019-01-30T02:45:15.171Z,58.39
2019-01-30T02:47:43.233Z,58.42
2019-01-30T02:50:13.923Z,58.39
2019-01-30T02:52:41.990Z,58.36
2019-01-30T02:55:12.774Z,58.38
2019-01-30T02:57:40.873Z,58.36
2019-01-30T03:00:24.193Z,58.35
2019-01-30T03:02:52.353Z,58.35
2019-01-30T03:05:20.426Z,58.31
2019-01-30T03:07:48.846Z,58.30
2019-01-30T03:10:17.469Z,58.31
2019-01-30T03:12:45.676Z,58.34
2019-01-30T03:15:14.414Z,58.35
2019-01-30T03:17:42.497Z,58.39
2019-01-30T03:20:19.174Z,58.39
2019-01-30T03:22:47.340Z,58.37
2019-01-30T03:25:16.207Z,58.34
2019-01-30T03:27:44.417Z,58.36
2019-01-30T03:30:25.029Z,58.36
2019-01-30T03:32:53.616Z,58.39
2019-01-30T03:35:22.163Z,58.41
2019-01-30T03:37:50.194Z,58.41
2019-01-30T03:40:18.815Z,58.38
2019-01-30T03:42:46.878Z,58.35
2019-01-30T03:45:17.516Z,58.37
2019-01-30T03:47:45.601Z,58.41
2019-01-30T03:50:13.801Z,58.40
2019-01-30T03:52:42.967Z,58.39
2019-01-30T03:55:12.515Z,58.40
2019-01-30T03:57:40.595Z,58.40
2019-01-30T04:00:13.513Z,58.38
2019-01-30T04:02:41.572Z,58.35
2019-01-30T04:05:09.749Z,58.39
2019-01-30T04:07:37.811Z,58.35
2019-01-30T04:10:07.272Z,58.38
2019-01-30T04:12:35.371Z,58.42
2019-01-30T04:15:04.864Z,58.46
2019-01-30T04:17:32.919Z,58.46
2019-01-30T04:20:00.975Z,58.45
2019-01-30T04:22:29.477Z,58.46
2019-01-30T04:24:57.530Z,58.40
2019-01-30T04:27:25.578Z,58.38
2019-01-30T04:29:53.652Z,58.38
2019-01-30T04:32:21.775Z,58.42
2019-01-30T04:34:49.867Z,58.43
2019-01-30T04:37:17.944Z,58.40
2019-01-30T04:39:46.013Z,58.40
2019-01-30T04:42:14.048Z,58.39
2019-01-30T04:44:42.200Z,58.42
2019-01-30T04:47:10.294Z,58.40
2019-01-30T04:49:38.755Z,58.38
2019-01-30T04:52:07.094Z,58.35
2019-01-30T04:54:35.235Z,58.35
2019-01-30T04:57:03.317Z,58.37
2019-01-30T04:59:33.528Z,58.39
2019-01-30T05:02:03.304Z,58.36
2019-01-30T05:04:31.483Z,58.35
2019-01-30T05:07:01.281Z,58.31
2019-01-30T05:09:29.377Z,58.29
2019-01-30T05:11:57.427Z,58.34
2019-01-30T05:14:26.626Z,58.40
2019-01-30T05:16:54.711Z,58.42
2019-01-30T05:19:22.798Z,58.45
2019-01-30T05:21:50.921Z,58.46
2019-01-30T05:24:19.010Z,58.49
2019-01-30T05:26:47.190Z,58.48
2019-01-30T05:29:15.459Z,58.51
2019-01-30T05:31:43.617Z,58.52
2019-01-30T05:34:11.680Z,58.51
2019-01-30T05:36:39.778Z,58.48
2019-01-30T05:39:08.758Z,58.49
2019-01-30T05:41:36.890Z,58.55
2019-01-30T05:44:04.974Z,58.60
2019-01-30T05:46:33.361Z,58.66
2019-01-30T05:49:01.429Z,58.69
2019-01-30T05:51:29.835Z,58.71
2019-01-30T05:53:57.921Z,58.73
2019-01-30T05:56:27.731Z,58.74
2019-01-30T05:58:55.817Z,58.73
2019-01-30T06:01:24.246Z,58.70
2019-01-30T06:03:54.212Z,58.71
2019-01-30T06:06:22.381Z,58.68
2019-01-30T06:08:50.478Z,58.66
2019-01-30T06:11:18.588Z,58.60
2019-01-30T06:13:46.651Z,58.59
2019-01-30T06:16:14.762Z,58.55
2019-01-30T06:18:42.811Z,58.62
2019-01-30T06:21:10.868Z,58.62
2019-01-30T06:23:38.926Z,58.56
2019-01-30T06:26:06.996Z,58.43
2019-01-30T06:28:35.313Z,58.31
2019-01-30T06:31:03.658Z,58.28
2019-01-30T06:33:31.711Z,58.22
2019-01-30T06:35:59.820Z,58.20
2019-01-30T06:38:27.849Z,58.12
2019-01-30T06:40:55.914Z,58.12
2019-01-30T06:43:23.956Z,58.14
2019-01-30T06:45:52.101Z,58.15
2019-01-30T06:48:20.165Z,58.18
2019-01-30T06:50:48.746Z,58.18
2019-01-30T06:53:16.821Z,58.22
2019-01-30T06:55:44.952Z,58.26
2019-01-30T06:58:13.024Z,58.31
2019-01-30T07:00:41.103Z,58.32
2019-01-30T07:03:09.187Z,58.33
2019-01-30T07:05:39.053Z,58.33
2019-01-30T07:08:07.147Z,58.32
2019-01-30T07:10:35.317Z,58.35
2019-01-30T07:13:03.406Z,58.38
2019-01-30T07:15:31.425Z,58.36
2019-01-30T07:17:59.751Z,58.35
2019-01-30T07:20:27.828Z,58.29
2019-01-30T07:22:55.842Z,58.28
2019-01-30T07:25:23.979Z,58.27
2019-01-30T07:27:52.264Z,58.24
2019-01-30T07:30:35.105Z,58.24
2019-01-30T07:33:04.314Z,58.26
2019-01-30T07:35:32.351Z,58.23
2019-01-30T07:38:01.566Z,58.21
2019-01-30T07:40:30.299Z,58.20
2019-01-30T07:42:58.451Z,58.19
2019-01-30T07:45:28.319Z,58.20
2019-01-30T07:47:56.421Z,58.21
2019-01-30T07:50:24.486Z,58.18
2019-01-30T07:52:52.680Z,58.18
2019-01-30T07:55:20.736Z,58.15
2019-01-30T07:57:48.929Z,58.13
2019-01-30T08:00:23.829Z,58.13
2019-01-30T08:02:53.636Z,58.08
2019-01-30T08:05:22.793Z,58.04
2019-01-30T08:07:51.475Z,58.06
2019-01-30T08:10:19.556Z,58.07
2019-01-30T08:12:47.632Z,58.07
2019-01-30T08:15:17.004Z,58.00
2019-01-30T08:17:45.096Z,57.97
2019-01-30T08:20:16.165Z,58.00
2019-01-30T08:22:44.511Z,58.03
2019-01-30T08:25:15.236Z,58.07
2019-01-30T08:27:43.638Z,58.05
2019-01-30T08:30:22.582Z,58.04
2019-01-30T08:32:46.632Z,57.87
2019-01-30T08:35:15.615Z,57.70
2019-01-30T08:37:45.896Z,57.50
2019-01-30T08:40:13.739Z,57.37
2019-01-30T08:42:41.787Z,57.43
2019-01-30T08:45:17.602Z,57.47
2019-01-30T08:47:45.709Z,57.54
2019-01-30T08:50:14.607Z,57.68
2019-01-30T08:52:42.713Z,57.76
2019-01-30T08:55:11.173Z,57.81
2019-01-30T08:57:39.538Z,57.81
2019-01-30T09:00:12.225Z,57.82
2019-01-30T09:02:40.309Z,57.79
2019-01-30T09:05:08.687Z,57.69
2019-01-30T09:07:43.860Z,57.52
2019-01-30T09:10:10.500Z,57.51
2019-01-30T09:12:38.854Z,57.45
2019-01-30T09:15:08.811Z,57.48
2019-01-30T09:17:36.912Z,57.55
2019-01-30T09:20:07.593Z,57.62
2019-01-30T09:22:35.647Z,57.64
2019-01-30T09:25:04.917Z,57.80
2019-01-30T09:27:32.988Z,57.93
2019-01-30T09:30:01.324Z,57.90
2019-01-30T09:32:29.383Z,57.92
2019-01-30T09:34:57.452Z,57.93
2019-01-30T09:37:27.289Z,58.01
2019-01-30T09:39:55.823Z,58.06
2019-01-30T09:42:24.018Z,58.04
2019-01-30T09:44:52.135Z,58.04
2019-01-30T09:47:20.223Z,58.07
2019-01-30T09:49:48.252Z,58.11
2019-01-30T09:52:26.397Z,58.13
2019-01-30T09:54:46.785Z,58.19
2019-01-30T09:57:15.251Z,58.22
2019-01-30T09:59:43.340Z,58.28
2019-01-30T10:02:11.499Z,58.28
2019-01-30T10:04:40.663Z,58.25
2019-01-30T10:07:08.986Z,58.19
2019-01-30T10:09:37.745Z,58.12
2019-01-30T10:12:06.165Z,58.10
2019-01-30T10:14:34.594Z,58.12
2019-01-30T10:17:02.649Z,58.14
2019-01-30T10:19:30.753Z,58.16
2019-01-30T10:21:58.838Z,58.18
2019-01-30T10:24:29.036Z,58.16
2019-01-30T10:26:57.033Z,58.17
2019-01-30T10:29:25.121Z,58.15
2019-01-30T10:31:53.154Z,58.12
2019-01-30T10:34:21.523Z,58.13
2019-01-30T10:36:49.547Z,58.14
2019-01-30T10:39:17.611Z,58.16
2019-01-30T10:41:45.645Z,58.14
2019-01-30T10:44:13.788Z,58.14
2019-01-30T10:46:41.841Z,58.17
2019-01-30T10:49:09.947Z,58.20
2019-01-30T10:51:37.956Z,58.21
2019-01-30T10:54:06.033Z,58.18
2019-01-30T10:56:34.842Z,58.23
2019-01-30T10:59:03.216Z,58.28
2019-01-30T11:01:31.260Z,58.32
2019-01-30T11:03:59.361Z,58.36
2019-01-30T11:06:27.367Z,58.40
2019-01-30T11:08:55.453Z,58.37
2019-01-30T11:11:24.469Z,58.36
2019-01-30T11:13:52.822Z,58.30
2019-01-30T11:16:20.894Z,58.29
2019-01-30T11:18:48.990Z,58.32
2019-01-30T11:21:17.082Z,58.31
2019-01-30T11:23:45.155Z,58.35
2019-01-30T11:26:14.212Z,58.37
2019-01-30T11:28:42.288Z,58.44
2019-01-30T11:31:10.322Z,58.48
2019-01-30T11:33:38.426Z,58.56
2019-01-30T11:36:06.602Z,58.56
2019-01-30T11:38:35.037Z,58.60
2019-01-30T11:41:03.402Z,58.65
2019-01-30T11:43:31.511Z,58.68
2019-01-30T11:46:01.090Z,58.69
2019-01-30T11:48:29.186Z,58.69
2019-01-30T11:50:57.198Z,58.68
2019-01-30T11:53:25.384Z,58.75
2019-01-30T11:55:53.413Z,58.82
2019-01-30T11:58:21.478Z,58.88
2019-01-30T12:00:56.016Z,58.90
2019-01-30T12:03:24.072Z,58.90
2019-01-30T12:05:52.117Z,58.87
2019-01-30T12:08:20.191Z,58.90
2019-01-30T12:10:48.236Z,58.92
2019-01-30T12:13:16.301Z,58.92
2019-01-30T12:15:44.349Z,58.98
2019-01-30T12:18:12.504Z,59.06
2019-01-30T12:20:40.612Z,59.10
2019-01-30T12:23:09.199Z,59.17
2019-01-30T12:25:37.234Z,59.15
2019-01-30T12:28:05.540Z,59.15
2019-01-30T12:30:34.446Z,59.19
2019-01-30T12:33:02.767Z,59.23
2019-01-30T12:35:30.832Z,59.21
2019-01-30T12:38:00.649Z,59.23
2019-01-30T12:40:28.699Z,59.22
2019-01-30T12:42:56.763Z,59.24
2019-01-30T12:45:30.853Z,59.28
2019-01-30T12:47:59.028Z,59.28
2019-01-30T12:50:27.407Z,59.31
2019-01-30T12:52:55.493Z,59.31
2019-01-30T12:55:23.839Z,59.30
2019-01-30T12:57:53.356Z,59.38
2019-01-30T13:00:25.012Z,59.41
2019-01-30T13:02:53.481Z,59.46
2019-01-30T13:05:23.899Z,59.55
2019-01-30T13:07:52.019Z,59.56
2019-01-30T13:10:20.259Z,59.58
2019-01-30T13:12:48.641Z,59.67
2019-01-30T13:15:18.462Z,59.69
2019-01-30T13:17:46.939Z,59.69
2019-01-30T13:20:17.568Z,59.75
2019-01-30T13:22:46.053Z,59.69
2019-01-30T13:25:17.419Z,59.71
2019-01-30T13:27:46.837Z,59.65
2019-01-30T13:30:24.801Z,59.58
2019-01-30T13:32:52.905Z,59.58
2019-01-30T13:35:22.120Z,59.56
2019-01-30T13:37:50.289Z,59.65
2019-01-30T13:40:25.234Z,59.65
2019-01-30T13:42:53.499Z,59.69
2019-01-30T13:45:22.976Z,59.75
2019-01-30T13:47:52.370Z,59.83
2019-01-30T13:50:22.698Z,59.90
2019-01-30T13:52:50.801Z,59.91
2019-01-30T13:55:18.798Z,59.88
2019-01-30T13:57:48.074Z,59.89
2019-01-30T14:00:22.893Z,59.91
2019-01-30T14:02:52.189Z,59.95
2019-01-30T14:05:20.283Z,59.91
2019-01-30T14:07:50.904Z,59.88
2019-01-30T14:10:19.157Z,59.90
2019-01-30T14:12:47.325Z,59.96
2019-01-30T14:15:18.375Z,60.00
2019-01-30T14:17:46.463Z,60.02
2019-01-30T14:20:15.269Z,60.02
2019-01-30T14:22:44.558Z,60.05
2019-01-30T14:25:13.306Z,60.12
2019-01-30T14:27:41.466Z,60.14
2019-01-30T14:30:18.726Z,60.11
2019-01-30T14:32:47.116Z,60.10
2019-01-30T14:35:15.180Z,60.10
2019-01-30T14:37:43.233Z,60.12
2019-01-30T14:40:13.375Z,60.21
2019-01-30T14:42:41.414Z,60.25
2019-01-30T14:45:12.410Z,60.28
2019-01-30T14:47:40.472Z,60.33
2019-01-30T14:50:13.323Z,60.34
2019-01-30T14:52:44.179Z,60.39
2019-01-30T14:55:13.576Z,60.41
2019-01-30T14:57:43.340Z,60.39
2019-01-30T15:00:16.457Z,60.36
2019-01-30T15:02:44.501Z,60.35
2019-01-30T15:05:21.868Z,60.37
2019-01-30T15:07:43.724Z,60.36
2019-01-30T15:10:14.951Z,60.37
2019-01-30T15:12:42.994Z,60.36
2019-01-30T15:15:14.481Z,60.39
2019-01-30T15:17:42.523Z,60.38
2019-01-30T15:36:50.806Z,60.20
2019-01-30T15:39:19.134Z,60.18
2019-01-30T15:41:47.291Z,60.17
2019-01-30T15:44:15.630Z,60.11
2019-01-30T15:46:43.740Z,60.09
2019-01-30T15:49:12.007Z,60.08
2019-01-30T15:51:40.082Z,60.06
2019-01-30T15:54:08.242Z,60.07
2019-01-30T15:56:37.191Z,60.05
2019-01-30T15:59:09.017Z,60.01
2019-01-30T16:01:43.193Z,59.90
2019-01-30T16:04:11.614Z,59.84
2019-01-30T16:06:40.651Z,59.82
2019-01-30T16:09:09.675Z,59.75
2019-01-30T16:11:37.861Z,59.75
2019-01-30T16:14:06.128Z,59.71
2019-01-30T16:16:34.567Z,59.65
2019-01-30T16:19:02.842Z,59.59
2019-01-30T16:21:30.938Z,59.52
2019-01-30T16:23:59.118Z,59.49
2019-01-30T16:26:27.224Z,59.40
2019-01-30T16:28:55.678Z,59.31
2019-01-30T16:31:24.979Z,59.24
2019-01-30T16:33:53.381Z,59.20
2019-01-30T16:36:22.027Z,59.11
2019-01-30T16:38:50.229Z,59.05
2019-01-30T16:41:18.542Z,59.04
2019-01-30T16:43:46.644Z,59.02
2019-01-30T16:46:14.883Z,58.95
2019-01-30T16:48:43.167Z,58.92
2019-01-30T16:51:11.551Z,58.89
2019-01-30T16:53:39.733Z,58.88
2019-01-30T16:56:07.926Z,58.87
2019-01-30T16:58:36.715Z,58.86
2019-01-30T17:01:05.576Z,58.81
2019-01-30T17:03:33.790Z,58.79
2019-01-30T17:06:07.636Z,58.79
2019-01-30T17:08:33.623Z,58.79
2019-01-30T17:11:02.030Z,58.81
2019-01-30T17:13:30.510Z,58.83
2019-01-30T17:15:59.236Z,58.82
2019-01-30T17:18:27.461Z,58.81
2019-01-30T17:20:55.797Z,58.81
2019-01-30T17:23:23.896Z,58.79
2019-01-30T17:25:53.272Z,58.82
2019-01-30T17:28:21.593Z,58.83
2019-01-30T17:31:26.065Z,58.79
2019-01-30T17:33:54.233Z,58.78
2019-01-30T17:36:22.616Z,58.76
2019-01-30T17:38:51.874Z,58.76
2019-01-30T17:41:20.522Z,58.75
2019-01-30T17:43:48.996Z,58.74
2019-01-30T17:46:17.574Z,58.74
2019-01-30T17:48:48.597Z,58.73
2019-01-30T17:51:16.187Z,58.69
2019-01-30T17:53:44.289Z,58.72
2019-01-30T17:56:12.621Z,58.76
2019-01-30T17:58:40.735Z,58.76
2019-01-30T18:01:09.191Z,58.77
2019-01-30T18:03:37.305Z,58.75
2019-01-30T18:06:05.958Z,58.76
2019-01-30T18:08:34.071Z,58.74
2019-01-30T18:11:03.639Z,58.72
2019-01-30T18:13:32.072Z,58.74
2019-01-30T18:16:01.815Z,58.70
2019-01-30T18:18:29.926Z,58.68
2019-01-30T18:20:58.202Z,58.66
2019-01-30T18:23:26.390Z,58.66
2019-01-30T18:25:54.650Z,58.64
2019-01-30T18:28:22.783Z,58.64
2019-01-30T18:30:51.117Z,58.65
2019-01-30T18:33:20.495Z,58.66
2019-01-30T18:35:50.561Z,58.62
2019-01-30T18:38:18.745Z,58.62
2019-01-30T18:40:47.586Z,58.63
2019-01-30T18:43:15.832Z,58.63
2019-01-30T18:45:44.144Z,58.64
2019-01-30T18:48:12.434Z,58.65
2019-01-30T18:50:41.717Z,58.67
2019-01-30T18:53:09.976Z,58.72
2019-01-30T18:55:38.166Z,58.74
2019-01-30T18:58:06.470Z,58.74
2019-01-30T19:00:41.327Z,58.76
2019-01-30T19:03:13.071Z,58.76
2019-01-30T19:05:41.211Z,58.76
2019-01-30T19:08:09.523Z,58.76
2019-01-30T19:10:38.356Z,58.78
2019-01-30T19:13:06.586Z,58.78
2019-01-30T19:15:34.778Z,58.76
2019-01-30T19:18:03.328Z,58.77
2019-01-30T19:20:35.145Z,58.77
2019-01-30T19:23:06.795Z,58.79
2019-01-30T19:25:33.941Z,58.81
2019-01-30T19:28:02.262Z,58.79
2019-01-30T19:30:31.933Z,58.79
2019-01-30T19:33:00.754Z,58.81
2019-01-30T19:35:29.303Z,58.81
2019-01-30T19:37:57.641Z,58.82
2019-01-30T19:40:26.269Z,58.82
2019-01-30T19:42:54.393Z,58.82
2019-01-30T19:45:24.717Z,58.83
2019-01-30T19:47:53.006Z,58.81
2019-01-30T19:50:26.681Z,58.83
2019-01-30T19:52:57.235Z,58.83
2019-01-30T19:55:28.340Z,58.85
2019-01-30T19:57:57.075Z,58.85
2019-01-30T20:00:28.926Z,58.84
2019-01-30T20:02:57.442Z,58.86
2019-01-30T20:05:26.039Z,58.88
2019-01-30T20:07:56.116Z,58.90
2019-01-30T20:10:30.517Z,58.89
2019-01-30T20:12:59.818Z,58.87
2019-01-30T20:15:30.078Z,58.85
2019-01-30T20:17:58.813Z,58.81
2019-01-30T20:20:27.429Z,58.80
2019-01-30T20:22:55.671Z,58.80
2019-01-30T20:25:27.312Z,58.80
2019-01-30T20:27:55.446Z,58.79
2019-01-30T20:30:24.763Z,58.79
2019-01-30T20:32:53.125Z,58.78
2019-01-30T20:35:21.882Z,58.80
2019-01-30T20:37:50.123Z,58.78
2019-01-30T20:40:21.548Z,58.80
2019-01-30T20:42:52.620Z,58.78
2019-01-30T20:45:19.936Z,58.76
2019-01-30T20:47:49.966Z,58.76
2019-01-30T20:50:21.337Z,58.75
2019-01-30T20:52:49.594Z,58.74
2019-01-30T20:55:19.257Z,58.78
2019-01-30T20:57:47.370Z,58.80
2019-01-30T21:00:23.560Z,58.80
2019-01-30T21:02:51.769Z,58.81
2019-01-30T21:05:20.990Z,58.79
2019-01-30T21:07:49.087Z,58.78
2019-01-30T21:10:23.796Z,58.79
2019-01-30T21:12:51.897Z,58.80
2019-01-30T21:15:19.992Z,58.79
2019-01-30T21:17:50.013Z,58.79
2019-01-30T21:20:18.076Z,58.80
2019-01-30T21:22:48.354Z,58.79
2019-01-30T21:25:19.076Z,58.78
2019-01-30T21:27:49.317Z,58.73
2019-01-30T21:30:21.346Z,58.75
2019-01-30T21:32:50.684Z,58.75
2019-01-30T21:35:20.737Z,58.75
2019-01-30T21:37:49.380Z,58.77
2019-01-30T21:40:17.731Z,58.78
2019-01-30T21:42:46.915Z,58.77
2019-01-30T21:45:20.281Z,58.76
2019-01-30T21:47:48.760Z,58.77
2019-01-30T21:50:17.252Z,58.78
2019-01-30T21:52:45.357Z,58.77
2019-01-30T21:55:18.982Z,58.74
2019-01-30T21:57:48.389Z,58.74
2019-01-30T22:00:22.557Z,58.74
2019-01-30T22:02:51.277Z,58.72
2019-01-30T22:05:19.361Z,58.69
2019-01-30T22:07:47.415Z,58.63
2019-01-30T22:10:18.870Z,58.57
2019-01-30T22:12:47.046Z,58.52
2019-01-30T22:15:15.792Z,58.49
2019-01-30T22:17:44.215Z,58.47
2019-01-30T22:20:24.077Z,58.44
2019-01-30T22:22:52.350Z,58.46
2019-01-30T22:25:21.679Z,58.48
2019-01-30T22:27:49.785Z,58.49
2019-01-30T22:30:32.738Z,58.49
2019-01-30T22:33:00.811Z,58.51
2019-01-30T22:35:28.900Z,58.50
2019-01-30T22:37:57.350Z,58.57
2019-01-30T22:40:25.562Z,58.56
2019-01-30T22:42:53.633Z,58.61
2019-01-30T22:45:22.025Z,58.64
2019-01-30T22:47:50.046Z,58.63
2019-01-30T22:50:20.335Z,58.64
2019-01-30T22:52:48.690Z,58.66
2019-01-30T22:55:18.892Z,58.68
2019-01-30T22:57:47.079Z,58.70
2019-01-30T23:00:50.177Z,58.71
2019-01-30T23:03:19.497Z,58.81
2019-01-30T23:06:59.743Z,58.80
2019-01-30T23:10:00.729Z,58.85
2019-01-30T23:12:58.578Z,58.79
2019-01-30T23:15:47.194Z,58.84
2019-01-30T23:19:20.415Z,58.81
2019-01-30T23:22:38.407Z,58.83
2019-01-30T23:25:38.992Z,58.82
2019-01-30T23:28:37.347Z,58.81
2019-01-30T23:31:28.688Z,58.82
2019-01-30T23:34:50.328Z,58.81
2019-01-30T23:38:02.394Z,58.86
2019-01-30T23:41:42.189Z,58.93
2019-01-30T23:44:42.697Z,58.99
2019-01-30T23:48:10.207Z,58.96
2019-01-30T23:51:32.308Z,59.02
2019-01-30T23:54:37.181Z,59.05
2019-01-30T23:57:49.954Z,59.09
